Time;durP1;ratioP1;P1;durP2;ratioP2;P2;SDS_P1;SDS_P2;PMS_P1;PMS_P2;Temp;Humidity;BMP_temperature;BMP_pressure;BME280_temperature;BME280_humidity;BME280_pressure;Samples;Min_cycle;Max_cycle;Signal;HPM_P1;HPM_P2
2023/12/14 00:01:49;;;;;;;;;;;;;;;;;;5137362;27;848;-67
2023/12/14 00:04:15;;;;;;;;;;;;;;;;;;5118770;27;1293;-67
2023/12/14 00:06:40;;;;;;;;;;;;;;;;;;5118660;27;1901;-67
2023/12/14 00:09:05;;;;;;;;;;;;;;;;;;5118793;27;982;-66
2023/12/14 00:11:30;;;;;;;;;;;;;;;;;;5118166;27;832;-67
2023/12/14 00:13:56;;;;;;;;;;;;;;;;;;5137424;27;777;-68
2023/12/14 00:16:21;;;;;;;;;;;;;;;;;;5137096;27;898;-68
2023/12/14 00:18:46;;;;;;;;;;;;;;;;;;5118711;27;967;-68
2023/12/14 00:21:11;;;;;;;;;;;;;;;;;;5118933;27;915;-67
2023/12/14 00:23:37;;;;;;;;;;;;;;;;;;5118299;27;1506;-67
2023/12/14 00:26:03;;;;;;;;;;;;;;;;;;5136721;27;1882;-66
2023/12/14 00:28:28;;;;;;;;;;;;;;;;;;5136989;27;860;-67
2023/12/14 00:30:53;;;;;;;;;;;;;;;;;;5137078;27;1113;-67
2023/12/14 00:33:18;;;;;;;;;;;;;;;;;;5137016;27;958;-66
2023/12/14 00:35:44;;;;;;;;;;;;;;;;;;5136704;27;805;-67
2023/12/14 00:38:09;;;;;;;;;;;;;;;;;;5118721;27;1621;-67
2023/12/14 00:40:34;;;;;;;;;;;;;;;;;;5136885;27;1064;-67
2023/12/14 00:43:00;;;;;;;;;;;;;;;;;;5136682;27;820;-67
2023/12/14 00:45:25;;;;;;;;;;;;;;;;;;5118107;27;947;-67
2023/12/14 00:47:50;;;;;;;;;;;;;;;;;;5136597;27;1977;-67
2023/12/14 00:50:15;;;;;;;;;;;;;;;;;;5136375;27;824;-67
2023/12/14 00:52:41;;;;;;;;;;;;;;;;;;5136422;27;907;-67
2023/12/14 00:55:06;;;;;;;;;;;;;;;;;;5101438;27;852;-67
2023/12/14 00:57:31;;;;;;;;;;;;;;;;;;5136561;27;1390;-67
2023/12/14 00:59:57;;;;;;;;;;;;;;;;;;5136615;27;856;-67
2023/12/14 01:02:22;;;;;;;;;;;;;;;;;;5136796;27;868;-67
2023/12/14 01:04:47;;;;;;;;;;;;;;;;;;5136777;27;795;-66
2023/12/14 01:07:13;;;;;;;;;;;;;;;;;;5136229;27;1901;-67
2023/12/14 01:09:38;;;;;;;;;;;;;;;;;;5136493;27;847;-67
2023/12/14 01:12:03;;;;;;;;;;;;;;;;;;5117824;27;927;-67
2023/12/14 01:14:29;;;;;;;;;;;;;;;;;;5135154;27;970;-67
2023/12/14 01:16:54;;;;;;;;;;;;;;;;;;5136347;27;991;-67
2023/12/14 01:19:19;;;;;;;;;;;;;;;;;;5118063;27;899;-67
2023/12/14 01:21:44;;;;;;;;;;;;;;;;;;5117786;27;887;-67
2023/12/14 01:24:10;;;;;;;;;;;;;;;;;;5118062;27;852;-67
2023/12/14 01:26:36;;;;;;;;;;;;;;;;;;5135903;27;1964;-67
2023/12/14 01:29:01;;;;;;;;;;;;;;;;;;5135390;27;1139;-66
2023/12/14 01:31:26;;;;;;;;;;;;;;;;;;5135766;27;891;-67
2023/12/14 01:33:52;;;;;;;;;;;;;;;;;;5136088;27;856;-67
2023/12/14 01:36:24;;;;;;;;;;;;;;;;;;5117412;27;1070;-66
2023/12/14 01:38:50;;;;;;;;;;;;;;;;;;5135809;27;844;-66
2023/12/14 01:41:15;;;;;;;;;;;;;;;;;;5117214;27;852;-67
2023/12/14 01:43:40;;;;;;;;;;;;;;;;;;5117414;27;962;-67
2023/12/14 01:46:05;;;;;;;;;;;;;;;;;;5135388;27;1906;-67
2023/12/14 01:48:31;;;;;;;;;;;;;;;;;;5135285;27;832;-67
2023/12/14 01:50:56;;;;;;;;;;;;;;;;;;5135509;27;915;-67
2023/12/14 01:53:21;;;;;;;;;;;;;;;;;;5135367;27;848;-67
2023/12/14 01:55:47;;;;;;;;;;;;;;;;;;5116595;27;761;-66
2023/12/14 01:58:12;;;;;;;;;;;;;;;;;;5135311;27;1003;-67
2023/12/14 02:00:41;;;;;;;;;;;;;;;;;;5135345;27;1151;-68
2023/12/14 02:03:06;;;;;;;;;;;;;;;;;;5135643;27;1014;-67
2023/12/14 02:05:31;;;;;;;;;;;;;;;;;;5116453;27;1095;-67
2023/12/14 02:07:57;;;;;;;;;;;;;;;;;;5135408;27;1957;-67
2023/12/14 02:10:23;;;;;;;;;;;;;;;;;;5135120;27;831;-67
2023/12/14 02:12:48;;;;;;;;;;;;;;;;;;5135156;27;895;-67
2023/12/14 02:15:13;;;;;;;;;;;;;;;;;;5116137;27;891;-67
2023/12/14 02:17:38;;;;;;;;;;;;;;;;;;5135409;27;887;-67
2023/12/14 02:20:05;;;;;;;;;;;;;;;;;;5116699;27;930;-66
2023/12/14 02:22:34;;;;;;;;;;;;;;;;;;5117039;27;836;-67
2023/12/14 02:24:59;;;;;;;;;;;;;;;;;;5117169;27;955;-68
2023/12/14 02:27:24;;;;;;;;;;;;;;;;;;5135574;27;1978;-68
2023/12/14 02:29:49;;;;;;;;;;;;;;;;;;5116980;27;1338;-68
2023/12/14 02:32:15;;;;;;;;;;;;;;;;;;5135869;27;962;-67
2023/12/14 02:34:40;;;;;;;;;;;;;;;;;;5117260;27;844;-67
2023/12/14 02:37:05;;;;;;;;;;;;;;;;;;5135522;27;876;-66
2023/12/14 02:39:31;;;;;;;;;;;;;;;;;;5135008;27;859;-67
2023/12/14 02:41:56;;;;;;;;;;;;;;;;;;5135158;27;848;-67
2023/12/14 02:44:21;;;;;;;;;;;;;;;;;;5135232;27;848;-67
2023/12/14 02:46:47;;;;;;;;;;;;;;;;;;5135321;28;1905;-67
2023/12/14 02:49:12;;;;;;;;;;;;;;;;;;5135283;28;836;-67
2023/12/14 02:51:37;;;;;;;;;;;;;;;;;;5134923;28;899;-67
2023/12/14 02:54:03;;;;;;;;;;;;;;;;;;5134848;28;963;-68
2023/12/14 02:56:28;;;;;;;;;;;;;;;;;;5116798;28;856;-66
2023/12/14 02:58:54;;;;;;;;;;;;;;;;;;5135335;28;948;-66
2023/12/14 03:01:21;;;;;;;;;;;;;;;;;;5134890;28;863;-68
2023/12/14 03:03:46;;;;;;;;;;;;;;;;;;5134478;28;896;-69
2023/12/14 03:06:11;;;;;;;;;;;;;;;;;;5134774;28;1945;-68
2023/12/14 03:08:36;;;;;;;;;;;;;;;;;;5115884;28;939;-68
2023/12/14 03:11:02;;;;;;;;;;;;;;;;;;5134372;28;1086;-68
2023/12/14 03:13:28;;;;;;;;;;;;;;;;;;5134433;28;844;-68
2023/12/14 03:15:53;;;;;;;;;;;;;;;;;;5134206;28;891;-68
2023/12/14 03:18:18;;;;;;;;;;;;;;;;;;5134725;28;899;-67
2023/12/14 03:20:44;;;;;;;;;;;;;;;;;;5134372;28;867;-67
2023/12/14 03:23:09;;;;;;;;;;;;;;;;;;5134870;28;993;-68
2023/12/14 03:25:34;;;;;;;;;;;;;;;;;;5134378;28;1030;-67
2023/12/14 03:28:00;;;;;;;;;;;;;;;;;;5134333;28;1972;-67
2023/12/14 03:30:26;;;;;;;;;;;;;;;;;;5133748;28;903;-67
2023/12/14 03:32:52;;;;;;;;;;;;;;;;;;5134171;28;864;-67
2023/12/14 03:35:17;;;;;;;;;;;;;;;;;;5134839;28;833;-62
2023/12/14 03:37:42;;;;;;;;;;;;;;;;;;5136381;27;1127;-62
2023/12/14 03:40:08;;;;;;;;;;;;;;;;;;5138057;27;990;-62
2023/12/14 03:42:33;;;;;;;;;;;;;;;;;;5137688;27;793;-62
2023/12/14 03:44:58;;;;;;;;;;;;;;;;;;5137854;27;804;-63
2023/12/14 03:47:24;;;;;;;;;;;;;;;;;;5137372;27;1897;-62
2023/12/14 03:49:49;;;;;;;;;;;;;;;;;;5137349;27;868;-62
2023/12/14 03:52:14;;;;;;;;;;;;;;;;;;5137459;27;792;-62
2023/12/14 03:54:39;;;;;;;;;;;;;;;;;;5137758;27;860;-62
2023/12/14 03:57:05;;;;;;;;;;;;;;;;;;5137932;27;911;-62
2023/12/14 03:59:32;;;;;;;;;;;;;;;;;;5137328;27;1012;-62
2023/12/14 04:01:57;;;;;;;;;;;;;;;;;;5137725;27;974;-62
2023/12/14 04:04:23;;;;;;;;;;;;;;;;;;5137144;27;914;-62
2023/12/14 04:06:48;;;;;;;;;;;;;;;;;;5137455;27;1901;-62
2023/12/14 04:09:14;;;;;;;;;;;;;;;;;;5137693;27;820;-63
2023/12/14 04:11:39;;;;;;;;;;;;;;;;;;5137250;27;950;-63
2023/12/14 04:14:04;;;;;;;;;;;;;;;;;;5137665;27;922;-63
2023/12/14 04:16:29;;;;;;;;;;;;;;;;;;5137444;27;1073;-63
2023/12/14 04:18:56;;;;;;;;;;;;;;;;;;5137734;27;990;-62
2023/12/14 04:21:21;;;;;;;;;;;;;;;;;;5119185;27;874;-67
2023/12/14 04:23:46;;;;;;;;;;;;;;;;;;5137346;27;962;-67
2023/12/14 04:26:13;;;;;;;;;;;;;;;;;;5137216;27;1905;-67
2023/12/14 04:28:38;;;;;;;;;;;;;;;;;;5137929;27;761;-67
2023/12/14 04:31:04;;;;;;;;;;;;;;;;;;5137491;27;1002;-66
2023/12/14 04:33:29;;;;;;;;;;;;;;;;;;5137122;27;892;-66
2023/12/14 04:35:54;;;;;;;;;;;;;;;;;;5137742;27;871;-66
2023/12/14 04:38:19;;;;;;;;;;;;;;;;;;5137539;27;953;-67
2023/12/14 04:40:45;;;;;;;;;;;;;;;;;;5137105;27;1030;-67
2023/12/14 04:43:10;;;;;;;;;;;;;;;;;;5136912;27;812;-67
2023/12/14 04:45:35;;;;;;;;;;;;;;;;;;5118695;27;1538;-66
2023/12/14 04:48:00;;;;;;;;;;;;;;;;;;5136821;27;1967;-67
2023/12/14 04:50:26;;;;;;;;;;;;;;;;;;5137164;27;812;-68
2023/12/14 04:52:51;;;;;;;;;;;;;;;;;;5136634;27;974;-68
2023/12/14 04:55:16;;;;;;;;;;;;;;;;;;5136747;27;843;-66
2023/12/14 04:57:43;;;;;;;;;;;;;;;;;;5136322;27;1019;-67
2023/12/14 05:00:08;;;;;;;;;;;;;;;;;;5118700;27;892;-70
2023/12/14 05:02:34;;;;;;;;;;;;;;;;;;5134686;27;1206;-67
2023/12/14 05:04:59;;;;;;;;;;;;;;;;;;5133839;27;1139;-68
2023/12/14 05:07:24;;;;;;;;;;;;;;;;;;5133522;27;1956;-67
2023/12/14 05:09:50;;;;;;;;;;;;;;;;;;5133068;27;1183;-67
2023/12/14 05:12:15;;;;;;;;;;;;;;;;;;5135074;27;1148;-68
2023/12/14 05:14:40;;;;;;;;;;;;;;;;;;5136172;27;824;-68
2023/12/14 05:17:06;;;;;;;;;;;;;;;;;;5118112;27;1438;-68
2023/12/14 05:19:32;;;;;;;;;;;;;;;;;;5136142;27;867;-67
2023/12/14 05:21:57;;;;;;;;;;;;;;;;;;5135889;27;1147;-68
2023/12/14 05:24:22;;;;;;;;;;;;;;;;;;5117352;27;960;-68
2023/12/14 05:26:48;;;;;;;;;;;;;;;;;;5135877;27;1901;-67
2023/12/14 05:29:13;;;;;;;;;;;;;;;;;;5117655;27;1014;-68
2023/12/14 05:31:38;;;;;;;;;;;;;;;;;;5135603;27;840;-67
2023/12/14 05:34:03;;;;;;;;;;;;;;;;;;5135587;27;851;-67
2023/12/14 05:36:29;;;;;;;;;;;;;;;;;;5135732;27;833;-67
2023/12/14 05:38:54;;;;;;;;;;;;;;;;;;5135819;27;1018;-67
2023/12/14 05:41:19;;;;;;;;;;;;;;;;;;5135968;27;1057;-67
2023/12/14 05:43:44;;;;;;;;;;;;;;;;;;5135813;27;812;-68
2023/12/14 05:46:20;;;;;;;;;;;;;;;;;;5135879;27;1937;-67
2023/12/14 05:48:45;;;;;;;;;;;;;;;;;;5135679;27;852;-68
2023/12/14 05:51:10;;;;;;;;;;;;;;;;;;5136028;27;958;-68
2023/12/14 05:53:39;;;;;;;;;;;;;;;;;;5136084;27;895;-67
2023/12/14 05:56:05;;;;;;;;;;;;;;;;;;5117527;27;836;-68
2023/12/14 05:58:31;;;;;;;;;;;;;;;;;;5100385;27;1378;-68
2023/12/14 06:00:56;;;;;;;;;;;;;;;;;;5135538;27;918;-66
2023/12/14 06:03:22;;;;;;;;;;;;;;;;;;5136034;27;848;-67
2023/12/14 06:05:47;;;;;;;;;;;;;;;;;;5135611;27;954;-69
2023/12/14 06:08:12;;;;;;;;;;;;;;;;;;5116969;27;1921;-67
2023/12/14 06:10:38;;;;;;;;;;;;;;;;;;5135770;27;903;-63
2023/12/14 06:13:03;;;;;;;;;;;;;;;;;;5135456;27;1053;-66
2023/12/14 06:15:28;;;;;;;;;;;;;;;;;;5135392;27;827;-63
2023/12/14 06:17:54;;;;;;;;;;;;;;;;;;5116801;27;1340;-62
2023/12/14 06:20:19;;;;;;;;;;;;;;;;;;5134918;27;993;-64
2023/12/14 06:22:44;;;;;;;;;;;;;;;;;;5134914;27;867;-64
2023/12/14 06:25:10;;;;;;;;;;;;;;;;;;5099523;27;1510;-63
2023/12/14 06:27:35;;;;;;;;;;;;;;;;;;5135190;27;1874;-62
2023/12/14 06:30:00;;;;;;;;;;;;;;;;;;5116651;27;852;-63
2023/12/14 06:32:25;;;;;;;;;;;;;;;;;;5134920;27;812;-63
2023/12/14 06:34:51;;;;;;;;;;;;;;;;;;5134369;27;848;-63
2023/12/14 06:37:16;;;;;;;;;;;;;;;;;;5134338;27;931;-62
2023/12/14 06:39:41;;;;;;;;;;;;;;;;;;5134260;27;958;-63
2023/12/14 06:42:07;;;;;;;;;;;;;;;;;;5134855;27;848;-63
2023/12/14 06:44:32;;;;;;;;;;;;;;;;;;5134145;27;837;-62
2023/12/14 06:46:58;;;;;;;;;;;;;;;;;;5134548;27;1882;-63
2023/12/14 06:49:23;;;;;;;;;;;;;;;;;;5134677;27;813;-62
2023/12/14 06:51:48;;;;;;;;;;;;;;;;;;5134618;28;911;-62
2023/12/14 06:54:14;;;;;;;;;;;;;;;;;;5134590;28;908;-62
2023/12/14 06:56:39;;;;;;;;;;;;;;;;;;5134933;27;769;-62
2023/12/14 06:59:04;;;;;;;;;;;;;;;;;;5134685;28;925;-62
2023/12/14 07:01:30;;;;;;;;;;;;;;;;;;5134809;27;879;-62
2023/12/14 07:03:55;;;;;;;;;;;;;;;;;;5132518;28;1226;-64
2023/12/14 07:06:21;;;;;;;;;;;;;;;;;;5131784;27;1889;-63
2023/12/14 07:08:47;;;;;;;;;;;;;;;;;;5132110;27;1123;-63
2023/12/14 07:11:12;;;;;;;;;;;;;;;;;;5132005;27;1218;-62
2023/12/14 07:13:38;;;;;;;;;;;;;;;;;;5138407;27;986;-63
2023/12/14 07:16:09;;;;;;;;;;;;;;;;;;5138343;27;868;-63
2023/12/14 07:18:35;;;;;;;;;;;;;;;;;;5138581;27;927;-62
2023/12/14 07:21:01;;;;;;;;;;;;;;;;;;5120087;27;840;-63
2023/12/14 07:23:26;;;;;;;;;;;;;;;;;;5138215;27;852;-63
2023/12/14 07:25:52;;;;;;;;;;;;;;;;;;5137865;27;868;-63
2023/12/14 07:28:17;;;;;;;;;;;;;;;;;;5138043;27;1975;-63
2023/12/14 07:30:42;;;;;;;;;;;;;;;;;;5137592;27;1072;-62
2023/12/14 07:33:08;;;;;;;;;;;;;;;;;;5138723;27;809;-67
2023/12/14 07:35:33;;;;;;;;;;;;;;;;;;5120309;27;949;-67
2023/12/14 07:37:58;;;;;;;;;;;;;;;;;;5138561;27;958;-63
2023/12/14 07:40:23;;;;;;;;;;;;;;;;;;5138320;27;899;-62
2023/12/14 07:42:49;;;;;;;;;;;;;;;;;;5120184;27;1139;-63
2023/12/14 07:45:14;;;;;;;;;;;;;;;;;;5138172;27;796;-62
2023/12/14 07:47:39;;;;;;;;;;;;;;;;;;5119963;27;1960;-63
2023/12/14 07:50:05;;;;;;;;;;;;;;;;;;5137952;27;847;-62
2023/12/14 07:52:30;;;;;;;;;;;;;;;;;;5137516;27;906;-62
2023/12/14 07:54:55;;;;;;;;;;;;;;;;;;5119126;27;872;-62
2023/12/14 07:57:21;;;;;;;;;;;;;;;;;;5137662;27;765;-63
2023/12/14 07:59:46;;;;;;;;;;;;;;;;;;5118259;27;1152;-62
2023/12/14 08:02:11;;;;;;;;;;;;;;;;;;5137139;27;785;-63
2023/12/14 08:04:36;;;;;;;;;;;;;;;;;;5136488;27;1144;-63
2023/12/14 08:07:02;;;;;;;;;;;;;;;;;;5118607;27;1901;-62
2023/12/14 08:09:27;;;;;;;;;;;;;;;;;;5137190;27;934;-62
2023/12/14 08:11:53;;;;;;;;;;;;;;;;;;5137285;27;895;-62
2023/12/14 08:14:18;;;;;;;;;;;;;;;;;;5137144;27;843;-63
2023/12/14 08:16:43;;;;;;;;;;;;;;;;;;5136887;27;807;-63
2023/12/14 08:19:09;;;;;;;;;;;;;;;;;;5137004;27;785;-63
2023/12/14 08:21:34;;;;;;;;;;;;;;;;;;5119003;27;1814;-63
2023/12/14 08:23:59;;;;;;;;;;;;;;;;;;5136889;27;895;-62
2023/12/14 08:26:24;;;;;;;;;;;;;;;;;;5118600;27;1893;-62
2023/12/14 08:28:50;;;;;;;;;;;;;;;;;;5136850;27;607;-62
2023/12/14 08:31:15;;;;;;;;;;;;;;;;;;5118824;27;1281;-63
2023/12/14 08:33:42;;;;;;;;;;;;;;;;;;5136754;27;887;-62
2023/12/14 08:36:07;;;;;;;;;;;;;;;;;;5136870;27;899;-62
2023/12/14 08:38:32;;;;;;;;;;;;;;;;;;5137022;27;848;-62
2023/12/14 08:40:58;;;;;;;;;;;;;;;;;;5101590;27;875;-62
2023/12/14 08:43:23;;;;;;;;;;;;;;;;;;5136766;27;911;-62
2023/12/14 08:45:48;;;;;;;;;;;;;;;;;;5136554;27;966;-62
2023/12/14 08:48:14;;;;;;;;;;;;;;;;;;5136366;27;1901;-62
2023/12/14 08:50:39;;;;;;;;;;;;;;;;;;5136652;27;931;-62
2023/12/14 08:53:05;;;;;;;;;;;;;;;;;;5136797;27;1010;-62
2023/12/14 08:55:31;;;;;;;;;;;;;;;;;;5136319;27;896;-63
2023/12/14 08:57:57;;;;;;;;;;;;;;;;;;5117635;27;1131;-63
2023/12/14 09:00:23;;;;;;;;;;;;;;;;;;5136362;27;911;-62
2023/12/14 09:02:49;;;;;;;;;;;;;;;;;;5136673;27;828;-63
2023/12/14 09:05:15;;;;;;;;;;;;;;;;;;5135923;27;841;-63
2023/12/14 09:07:41;;;;;;;;;;;;;;;;;;5135369;27;1898;-63
2023/12/14 09:10:06;;;;;;;;;;;;;;;;;;5135770;27;777;-63
2023/12/14 09:12:33;;;;;;;;;;;;;;;;;;5117797;27;895;-63
2023/12/14 09:14:58;;;;;;;;;;;;;;;;;;5136180;27;903;-63
2023/12/14 09:17:23;;;;;;;;;;;;;;;;;;5136057;27;907;-63
2023/12/14 09:19:49;;;;;;;;;;;;;;;;;;5136087;27;908;-63
2023/12/14 09:22:14;;;;;;;;;;;;;;;;;;5136027;27;820;-63
2023/12/14 09:24:39;;;;;;;;;;;;;;;;;;5136684;27;914;-63
2023/12/14 09:27:04;;;;;;;;;;;;;;;;;;5136467;27;1902;-63
2023/12/14 09:29:30;;;;;;;;;;;;;;;;;;5117459;27;1204;-63
2023/12/14 09:31:55;;;;;;;;;;;;;;;;;;5136321;27;899;-63
2023/12/14 09:34:20;;;;;;;;;;;;;;;;;;5134503;27;928;-63
2023/12/14 09:36:45;;;;;;;;;;;;;;;;;;5135307;27;939;-63
2023/12/14 09:39:11;;;;;;;;;;;;;;;;;;5135791;27;828;-63
2023/12/14 09:41:37;;;;;;;;;;;;;;;;;;5135680;27;942;-63
2023/12/14 09:44:03;;;;;;;;;;;;;;;;;;5135289;27;813;-63
2023/12/14 09:46:28;;;;;;;;;;;;;;;;;;5135122;27;1902;-63
2023/12/14 09:48:54;;;;;;;;;;;;;;;;;;5134947;27;896;-63
2023/12/14 09:51:20;;;;;;;;;;;;;;;;;;5135186;27;832;-63
2023/12/14 09:53:46;;;;;;;;;;;;;;;;;;5135146;27;844;-63
2023/12/14 09:56:11;;;;;;;;;;;;;;;;;;5116980;27;863;-62
2023/12/14 09:58:36;;;;;;;;;;;;;;;;;;5135491;27;999;-63
2023/12/14 10:01:04;;;;;;;;;;;;;;;;;;5135089;27;832;-62
2023/12/14 10:03:29;;;;;;;;;;;;;;;;;;5135104;27;852;-62
2023/12/14 10:05:55;;;;;;;;;;;;;;;;;;5135223;27;907;-63
2023/12/14 10:08:21;;;;;;;;;;;;;;;;;;5134831;27;1980;-63
2023/12/14 10:10:48;;;;;;;;;;;;;;;;;;5135089;27;868;-63
2023/12/14 10:13:14;;;;;;;;;;;;;;;;;;5099415;27;1415;-64
2023/12/14 10:15:43;;;;;;;;;;;;;;;;;;5134883;27;859;-63
2023/12/14 10:18:08;;;;;;;;;;;;;;;;;;5134911;27;848;-63
2023/12/14 10:20:34;;;;;;;;;;;;;;;;;;5134703;27;868;-63
2023/12/14 10:22:59;;;;;;;;;;;;;;;;;;5135441;27;930;-62
2023/12/14 10:25:25;;;;;;;;;;;;;;;;;;5135220;27;955;-62
2023/12/14 10:27:52;;;;;;;;;;;;;;;;;;5116520;27;1973;-62
2023/12/14 10:30:19;;;;;;;;;;;;;;;;;;5134528;27;773;-62
2023/12/14 10:32:45;;;;;;;;;;;;;;;;;;5134593;27;856;-62
2023/12/14 10:35:12;;;;;;;;;;;;;;;;;;5134799;27;820;-62
2023/12/14 10:37:41;;;;;;;;;;;;;;;;;;5135126;27;864;-67
2023/12/14 10:40:06;;;;;;;;;;;;;;;;;;5117190;27;864;-67
2023/12/14 10:42:34;;;;;;;;;;;;;;;;;;5133852;27;1202;-67
2023/12/14 10:45:02;;;;;;;;;;;;;;;;;;5134837;27;848;-67
2023/12/14 10:47:27;;;;;;;;;;;;;;;;;;5134264;27;1905;-67
2023/12/14 10:49:54;;;;;;;;;;;;;;;;;;5134690;28;882;-67
2023/12/14 10:52:20;;;;;;;;;;;;;;;;;;5134872;28;954;-67
2023/12/14 10:54:47;;;;;;;;;;;;;;;;;;5134916;28;876;-67
2023/12/14 10:57:12;;;;;;;;;;;;;;;;;;5134675;28;860;-68
2023/12/14 10:59:38;;;;;;;;;;;;;;;;;;5135002;28;1006;-67
2023/12/14 11:02:09;;;;;;;;;;;;;;;;;;5134836;28;615;-67
2023/12/14 11:04:54;;;;;;;;;;;;;;;;;;5134586;28;769;-67
2023/12/14 11:07:39;;;;;;;;;;;;;;;;;;5134472;28;1902;-66
2023/12/14 11:10:05;;;;;;;;;;;;;;;;;;5133785;28;1803;-67
2023/12/14 11:12:33;;;;;;;;;;;;;;;;;;5134040;28;981;-67
2023/12/14 11:14:59;;;;;;;;;;;;;;;;;;5134801;28;757;-67
2023/12/14 11:17:24;;;;;;;;;;;;;;;;;;5134501;28;962;-67
2023/12/14 11:19:50;;;;;;;;;;;;;;;;;;5134124;28;947;-67
2023/12/14 11:22:23;;;;;;;;;;;;;;;;;;5134197;28;923;-66
2023/12/14 11:24:53;;;;;;;;;;;;;;;;;;5134143;28;812;-67
2023/12/14 11:27:20;;;;;;;;;;;;;;;;;;5134517;28;1918;-67
2023/12/14 11:29:47;;;;;;;;;;;;;;;;;;5134075;28;907;-67
2023/12/14 11:32:13;;;;;;;;;;;;;;;;;;5134228;28;923;-63
2023/12/14 11:34:41;;;;;;;;;;;;;;;;;;5134064;28;909;-62
2023/12/14 11:37:07;;;;;;;;;;;;;;;;;;5133979;28;1020;-63
2023/12/14 11:39:33;;;;;;;;;;;;;;;;;;5133915;28;907;-62
2023/12/14 11:42:02;;;;;;;;;;;;;;;;;;5133790;28;884;-62
2023/12/14 11:44:28;;;;;;;;;;;;;;;;;;5133834;28;1029;-62
2023/12/14 11:46:54;;;;;;;;;;;;;;;;;;5133786;28;1891;-63
2023/12/14 11:49:19;;;;;;;;;;;;;;;;;;5134014;28;836;-63
2023/12/14 11:51:47;;;;;;;;;;;;;;;;;;5133845;28;899;-63
2023/12/14 11:54:13;;;;;;;;;;;;;;;;;;5133799;28;844;-63
2023/12/14 11:56:39;;;;;;;;;;;;;;;;;;5133947;28;935;-63
2023/12/14 11:59:04;;;;;;;;;;;;;;;;;;5136549;27;1073;-63
2023/12/14 12:01:31;;;;;;;;;;;;;;;;;;5137551;27;859;-62
2023/12/14 12:03:57;;;;;;;;;;;;;;;;;;5137261;27;1062;-63
2023/12/14 12:06:29;;;;;;;;;;;;;;;;;;5137332;27;958;-62
2023/12/14 12:08:54;;;;;;;;;;;;;;;;;;5137152;27;906;-62
2023/12/14 12:11:21;;;;;;;;;;;;;;;;;;5136643;27;993;-63
2023/12/14 12:13:50;;;;;;;;;;;;;;;;;;5136985;27;848;-62
2023/12/14 12:16:15;;;;;;;;;;;;;;;;;;5137069;27;848;-62
2023/12/14 12:18:40;;;;;;;;;;;;;;;;;;5136846;27;1067;-62
2023/12/14 12:21:08;;;;;;;;;;;;;;;;;;5136978;27;1132;-62
2023/12/14 12:23:36;;;;;;;;;;;;;;;;;;5118932;27;844;-63
2023/12/14 12:26:01;;;;;;;;;;;;;;;;;;5137212;27;898;-63
2023/12/14 12:28:27;;;;;;;;;;;;;;;;;;5119114;27;1959;-62
2023/12/14 12:30:52;;;;;;;;;;;;;;;;;;5137245;27;797;-62
2023/12/14 12:33:18;;;;;;;;;;;;;;;;;;5118960;27;840;-63
2023/12/14 12:35:43;;;;;;;;;;;;;;;;;;5118775;27;832;-63
2023/12/14 12:38:08;;;;;;;;;;;;;;;;;;5119222;27;824;-62
2023/12/14 12:40:34;;;;;;;;;;;;;;;;;;5118988;27;1010;-62
2023/12/14 12:42:59;;;;;;;;;;;;;;;;;;5136547;27;809;-62
2023/12/14 12:45:27;;;;;;;;;;;;;;;;;;5137259;27;868;-63
2023/12/14 12:47:53;;;;;;;;;;;;;;;;;;5136304;27;1972;-66
2023/12/14 12:50:18;;;;;;;;;;;;;;;;;;5136488;27;998;-66
2023/12/14 12:52:45;;;;;;;;;;;;;;;;;;5118005;27;1460;-66
2023/12/14 12:55:11;;;;;;;;;;;;;;;;;;5136449;27;883;-66
2023/12/14 12:57:36;;;;;;;;;;;;;;;;;;5118004;27;896;-65
2023/12/14 13:00:04;;;;;;;;;;;;;;;;;;5136318;27;911;-65
2023/12/14 13:02:29;;;;;;;;;;;;;;;;;;5135844;27;856;-65
2023/12/14 13:04:54;;;;;;;;;;;;;;;;;;5136057;27;831;-65
2023/12/14 13:07:19;;;;;;;;;;;;;;;;;;5136185;27;1906;-66
2023/12/14 13:09:45;;;;;;;;;;;;;;;;;;5134963;27;927;-66
2023/12/14 13:12:10;;;;;;;;;;;;;;;;;;5116841;27;966;-65
2023/12/14 13:14:36;;;;;;;;;;;;;;;;;;5136128;27;919;-65
2023/12/14 13:17:01;;;;;;;;;;;;;;;;;;5135797;27;824;-65
2023/12/14 13:19:27;;;;;;;;;;;;;;;;;;5135911;27;966;-65
2023/12/14 13:21:52;;;;;;;;;;;;;;;;;;5136388;27;887;-65
2023/12/14 13:24:17;;;;;;;;;;;;;;;;;;5136024;27;844;-65
2023/12/14 13:26:43;;;;;;;;;;;;;;;;;;5135284;27;1969;-65
2023/12/14 13:29:08;;;;;;;;;;;;;;;;;;5117601;27;1185;-65
2023/12/14 13:31:33;;;;;;;;;;;;;;;;;;5135489;27;777;-65
2023/12/14 13:33:59;;;;;;;;;;;;;;;;;;5135211;27;876;-64
2023/12/14 13:36:24;;;;;;;;;;;;;;;;;;5117294;27;840;-64
2023/12/14 13:38:49;;;;;;;;;;;;;;;;;;5116683;27;1178;-65
2023/12/14 13:41:14;;;;;;;;;;;;;;;;;;5135327;27;910;-65
2023/12/14 13:43:39;;;;;;;;;;;;;;;;;;5135007;27;973;-65
2023/12/14 13:46:05;;;;;;;;;;;;;;;;;;5135211;27;998;-65
2023/12/14 13:48:30;;;;;;;;;;;;;;;;;;5116598;27;1901;-65
2023/12/14 13:50:55;;;;;;;;;;;;;;;;;;5134980;27;962;-66
2023/12/14 13:53:21;;;;;;;;;;;;;;;;;;5133808;27;812;-65
2023/12/14 13:55:48;;;;;;;;;;;;;;;;;;5133270;27;948;-65
2023/12/14 13:58:14;;;;;;;;;;;;;;;;;;5114954;27;963;-65
2023/12/14 14:00:39;;;;;;;;;;;;;;;;;;5115040;27;1017;-65
2023/12/14 14:03:05;;;;;;;;;;;;;;;;;;5114994;27;789;-65
2023/12/14 14:05:33;;;;;;;;;;;;;;;;;;5133180;27;749;-64
2023/12/14 14:07:59;;;;;;;;;;;;;;;;;;5114266;27;1959;-64
2023/12/14 14:10:24;;;;;;;;;;;;;;;;;;5134595;27;1272;-65
2023/12/14 14:12:50;;;;;;;;;;;;;;;;;;5116135;27;1012;-65
2023/12/14 14:15:15;;;;;;;;;;;;;;;;;;5133564;27;915;-66
2023/12/14 14:17:41;;;;;;;;;;;;;;;;;;5134765;27;1006;-65
2023/12/14 14:20:07;;;;;;;;;;;;;;;;;;5135412;27;954;-65
2023/12/14 14:22:33;;;;;;;;;;;;;;;;;;5134846;27;860;-66
2023/12/14 14:24:58;;;;;;;;;;;;;;;;;;5134598;27;938;-65
2023/12/14 14:27:23;;;;;;;;;;;;;;;;;;5134882;27;1893;-66
2023/12/14 14:29:49;;;;;;;;;;;;;;;;;;5134579;27;904;-65
2023/12/14 14:32:15;;;;;;;;;;;;;;;;;;5116286;27;821;-65
2023/12/14 14:34:41;;;;;;;;;;;;;;;;;;5116071;27;1034;-65
2023/12/14 14:37:06;;;;;;;;;;;;;;;;;;5116513;28;1664;-64
2023/12/14 14:39:31;;;;;;;;;;;;;;;;;;5116077;28;1295;-64
2023/12/14 14:41:56;;;;;;;;;;;;;;;;;;5134519;27;880;-64
2023/12/14 14:44:22;;;;;;;;;;;;;;;;;;5134252;27;863;-64
2023/12/14 14:46:47;;;;;;;;;;;;;;;;;;5134241;27;1889;-75
2023/12/14 14:49:12;;;;;;;;;;;;;;;;;;5115578;28;1349;-62
2023/12/14 14:51:38;;;;;;;;;;;;;;;;;;5135101;28;914;-63
2023/12/14 14:54:03;;;;;;;;;;;;;;;;;;5115780;28;895;-65
2023/12/14 14:56:28;;;;;;;;;;;;;;;;;;5134496;28;868;-63
2023/12/14 14:58:53;;;;;;;;;;;;;;;;;;5134514;28;1049;-63
2023/12/14 15:01:19;;;;;;;;;;;;;;;;;;5134505;28;769;-60
2023/12/14 15:03:44;;;;;;;;;;;;;;;;;;5134531;28;915;-63
2023/12/14 15:06:09;;;;;;;;;;;;;;;;;;5134331;28;907;-62
2023/12/14 15:08:35;;;;;;;;;;;;;;;;;;5133989;28;1968;-63
2023/12/14 15:11:00;;;;;;;;;;;;;;;;;;5134359;28;863;-63
2023/12/14 15:13:25;;;;;;;;;;;;;;;;;;5134081;28;867;-64
2023/12/14 15:15:51;;;;;;;;;;;;;;;;;;5133865;28;923;-62
2023/12/14 15:18:16;;;;;;;;;;;;;;;;;;5115531;28;750;-61
2023/12/14 15:20:42;;;;;;;;;;;;;;;;;;5134140;28;773;-62
2023/12/14 15:23:08;;;;;;;;;;;;;;;;;;5134361;28;824;-62
2023/12/14 15:25:33;;;;;;;;;;;;;;;;;;5134062;28;919;-64
2023/12/14 15:27:59;;;;;;;;;;;;;;;;;;5133976;28;1906;-62
2023/12/14 15:30:24;;;;;;;;;;;;;;;;;;5099156;28;1498;-62
2023/12/14 15:32:49;;;;;;;;;;;;;;;;;;5134891;27;895;-61
2023/12/14 15:35:14;;;;;;;;;;;;;;;;;;5137561;27;944;-63
2023/12/14 15:37:40;;;;;;;;;;;;;;;;;;5138138;27;887;-63
2023/12/14 15:40:05;;;;;;;;;;;;;;;;;;5138365;27;835;-61
2023/12/14 15:42:30;;;;;;;;;;;;;;;;;;5138467;27;1403;-66
2023/12/14 15:44:56;;;;;;;;;;;;;;;;;;5138290;27;844;-69
2023/12/14 15:47:22;;;;;;;;;;;;;;;;;;5138071;27;1976;-68
2023/12/14 15:49:47;;;;;;;;;;;;;;;;;;5119313;27;2205;-66
2023/12/14 15:52:13;;;;;;;;;;;;;;;;;;5119502;27;844;-68
2023/12/14 15:54:38;;;;;;;;;;;;;;;;;;5138035;27;840;-65
2023/12/14 15:57:04;;;;;;;;;;;;;;;;;;5137605;27;926;-67
2023/12/14 15:59:30;;;;;;;;;;;;;;;;;;5138343;27;944;-67
2023/12/14 16:01:55;;;;;;;;;;;;;;;;;;5137604;27;844;-68
2023/12/14 16:04:21;;;;;;;;;;;;;;;;;;5137871;27;918;-63
2023/12/14 16:06:46;;;;;;;;;;;;;;;;;;5137570;27;1894;-62
2023/12/14 16:09:12;;;;;;;;;;;;;;;;;;5118891;27;1337;-63
2023/12/14 16:11:37;;;;;;;;;;;;;;;;;;5137414;27;820;-63
2023/12/14 16:14:03;;;;;;;;;;;;;;;;;;5137325;27;832;-63
2023/12/14 16:16:28;;;;;;;;;;;;;;;;;;5137248;27;939;-63
2023/12/14 16:18:53;;;;;;;;;;;;;;;;;;5137601;27;930;-62
2023/12/14 16:21:18;;;;;;;;;;;;;;;;;;5136794;27;946;-63
2023/12/14 16:23:44;;;;;;;;;;;;;;;;;;5137495;27;915;-63
2023/12/14 16:26:12;;;;;;;;;;;;;;;;;;5137764;27;882;-63
2023/12/14 16:28:37;;;;;;;;;;;;;;;;;;5137262;27;1897;-63
2023/12/14 16:31:06;;;;;;;;;;;;;;;;;;5137019;27;1163;-63
2023/12/14 16:33:32;;;;;;;;;;;;;;;;;;5137695;27;942;-61
2023/12/14 16:35:57;;;;;;;;;;;;;;;;;;5137027;27;844;-62
2023/12/14 16:38:22;;;;;;;;;;;;;;;;;;5136999;27;947;-61
2023/12/14 16:40:48;;;;;;;;;;;;;;;;;;5137282;27;880;-61
2023/12/14 16:43:18;;;;;;;;;;;;;;;;;;5118512;27;2334;-63
2023/12/14 16:45:44;;;;;;;;;;;;;;;;;;5136727;27;765;-62
2023/12/14 16:48:09;;;;;;;;;;;;;;;;;;5136527;27;1972;-62
2023/12/14 16:50:34;;;;;;;;;;;;;;;;;;5136412;27;1006;-61
2023/12/14 16:53:00;;;;;;;;;;;;;;;;;;5136740;27;805;-62
2023/12/14 16:55:25;;;;;;;;;;;;;;;;;;5136788;27;862;-62
2023/12/14 16:57:50;;;;;;;;;;;;;;;;;;5136859;27;1233;-63
2023/12/14 17:00:15;;;;;;;;;;;;;;;;;;5136939;27;883;-62
2023/12/14 17:02:41;;;;;;;;;;;;;;;;;;5137244;27;977;-62
2023/12/14 17:05:06;;;;;;;;;;;;;;;;;;5118728;27;1002;-62